createdAt,value
2018-07-28T00:00:53.942Z,1000.68
2018-07-28T00:01:53.920Z,1000.64
2018-07-28T00:02:53.929Z,1000.63
2018-07-28T00:03:53.897Z,1000.67
2018-07-28T00:04:53.910Z,1000.66
2018-07-28T00:05:53.878Z,1000.59
2018-07-28T00:06:53.894Z,1000.63
2018-07-28T00:07:53.894Z,1000.63
2018-07-28T00:08:53.843Z,1000.60
2018-07-28T00:09:53.846Z,1000.58
2018-07-28T00:10:53.827Z,1000.60
2018-07-28T00:11:53.810Z,1000.59
2018-07-28T00:12:53.833Z,1000.62
2018-07-28T00:13:53.791Z,1000.65
2018-07-28T00:14:53.781Z,1000.62
2018-07-28T00:15:53.780Z,1000.65
2018-07-28T00:16:53.757Z,1000.59
2018-07-28T00:17:53.784Z,1000.60
2018-07-28T00:18:53.732Z,1000.62
2018-07-28T00:19:53.729Z,1000.60
2018-07-28T00:20:53.712Z,1000.59
2018-07-28T00:21:53.705Z,1000.60
2018-07-28T00:22:53.712Z,1000.53
2018-07-28T00:23:53.683Z,1000.56
2018-07-28T00:24:53.670Z,1000.53
2018-07-28T00:25:53.658Z,1000.48
2018-07-28T00:26:53.642Z,1000.49
2018-07-28T00:27:53.670Z,1000.46
2018-07-28T00:28:53.629Z,1000.43
2018-07-28T00:29:53.613Z,1000.43
2018-07-28T00:30:53.603Z,1000.44
2018-07-28T00:31:53.603Z,1000.44
2018-07-28T00:32:53.608Z,1000.42
2018-07-28T00:33:53.572Z,1000.46
2018-07-28T00:34:53.556Z,1000.47
2018-07-28T00:35:53.553Z,1000.45
2018-07-28T00:36:53.542Z,1000.48
2018-07-28T00:37:53.565Z,1000.44
2018-07-28T00:38:53.520Z,1000.44
2018-07-28T00:39:53.511Z,1000.43
2018-07-28T00:40:53.446Z,1000.44
2018-07-28T00:41:53.485Z,1000.39
2018-07-28T00:42:53.478Z,1000.43
2018-07-28T00:43:53.503Z,1000.36
2018-07-28T00:44:53.451Z,1000.41
2018-07-28T00:45:53.445Z,1000.36
2018-07-28T00:46:53.435Z,1000.34
2018-07-28T00:47:53.543Z,1000.36
2018-07-28T00:48:53.432Z,1000.39
2018-07-28T00:49:53.403Z,1000.33
2018-07-28T00:50:53.393Z,1000.28
2018-07-28T00:51:53.374Z,1000.30
2018-07-28T00:52:53.371Z,1000.25
2018-07-28T00:53:53.451Z,1000.23
2018-07-28T00:54:53.347Z,1000.26
2018-07-28T00:55:53.336Z,1000.22
2018-07-28T00:56:53.281Z,1000.22
2018-07-28T00:57:53.310Z,1000.25
2018-07-28T00:58:53.326Z,1000.25
2018-07-28T00:59:53.299Z,1000.23
2018-07-28T01:00:53.281Z,1000.26
2018-07-28T01:01:53.275Z,1000.26
2018-07-28T01:02:53.261Z,1000.25
2018-07-28T01:03:53.319Z,1000.28
2018-07-28T01:04:53.232Z,1000.27
2018-07-28T01:05:53.232Z,1000.23
2018-07-28T01:06:53.219Z,1000.19
2018-07-28T01:07:53.203Z,1000.20
2018-07-28T01:08:53.175Z,1000.17
2018-07-28T01:09:53.189Z,1000.17
2018-07-28T01:10:53.171Z,1000.14
2018-07-28T01:11:53.168Z,1000.11
2018-07-28T01:12:53.148Z,1000.15
2018-07-28T01:13:53.171Z,1000.14
2018-07-28T01:14:53.137Z,1000.21
2018-07-28T01:15:53.114Z,1000.17
2018-07-28T01:16:53.113Z,1000.20
2018-07-28T01:17:53.104Z,1000.19
2018-07-28T01:18:53.127Z,1000.20
2018-07-28T01:19:53.075Z,1000.19
2018-07-28T01:20:53.075Z,1000.17
2018-07-28T01:21:53.006Z,1000.14
2018-07-28T01:22:53.044Z,1000.16
2018-07-28T01:23:53.070Z,1000.09
2018-07-28T01:24:53.026Z,1000.14
2018-07-28T01:25:52.971Z,1000.15
2018-07-28T01:26:52.961Z,1000.15
2018-07-28T01:27:52.946Z,1000.15
2018-07-28T01:28:53.011Z,1000.19
2018-07-28T01:29:52.930Z,1000.19
2018-07-28T01:30:52.959Z,1000.15
2018-07-28T01:31:52.952Z,1000.13
2018-07-28T01:32:52.943Z,1000.06
2018-07-28T01:33:52.965Z,1000.08
2018-07-28T01:34:52.914Z,1000.07
2018-07-28T01:35:52.867Z,1000.08
2018-07-28T01:36:52.894Z,1000.05
2018-07-28T01:37:52.888Z,1000.05
2018-07-28T01:38:52.904Z,1000.04
2018-07-28T01:39:52.862Z,1000.03
2018-07-28T01:40:52.848Z,1000.06
2018-07-28T01:41:52.798Z,1000.03
2018-07-28T01:42:52.788Z,1000.05
2018-07-28T01:43:52.862Z,999.99
2018-07-28T01:44:52.808Z,999.99
2018-07-28T01:45:52.794Z,999.99
2018-07-28T01:46:52.742Z,999.96
2018-07-28T01:47:52.782Z,999.93
2018-07-28T01:48:52.793Z,999.92
2018-07-28T01:49:52.753Z,999.93
2018-07-28T01:50:52.743Z,999.91
2018-07-28T01:51:52.737Z,999.90
2018-07-28T01:52:52.776Z,999.93
2018-07-28T01:53:52.731Z,999.87
2018-07-28T01:54:52.702Z,999.84
2018-07-28T01:55:52.695Z,999.80
2018-07-28T01:56:52.634Z,999.83
2018-07-28T01:57:52.672Z,999.81
2018-07-28T01:58:52.683Z,999.80
2018-07-28T01:59:52.650Z,999.79
2018-07-28T02:00:52.637Z,999.76
2018-07-28T02:01:52.631Z,999.79
2018-07-28T02:02:52.576Z,999.76
2018-07-28T02:03:52.624Z,999.81
2018-07-28T02:04:52.604Z,999.81
2018-07-28T02:05:52.583Z,999.77
2018-07-28T02:06:52.587Z,999.77
2018-07-28T02:07:52.571Z,999.71
2018-07-28T02:08:52.586Z,999.75
2018-07-28T02:09:52.496Z,999.72
2018-07-28T02:10:52.537Z,999.72
2018-07-28T02:11:52.470Z,999.70
2018-07-28T02:12:52.514Z,999.71
2018-07-28T02:13:52.532Z,999.71
2018-07-28T02:14:52.488Z,999.71
2018-07-28T02:15:52.476Z,999.70
2018-07-28T02:16:52.474Z,999.73
2018-07-28T02:17:52.454Z,999.70
2018-07-28T02:18:52.473Z,999.74
2018-07-28T02:19:52.435Z,999.72
2018-07-28T02:20:52.422Z,999.74
2018-07-28T02:21:52.425Z,999.79
2018-07-28T02:22:52.402Z,999.80
2018-07-28T02:23:52.417Z,999.81
2018-07-28T02:24:52.381Z,999.92
2018-07-28T02:25:52.368Z,999.98
2018-07-28T02:26:52.358Z,1000.05
2018-07-28T02:27:52.355Z,1000.11
2018-07-28T02:28:52.408Z,1000.24
2018-07-28T02:29:52.326Z,1000.21
2018-07-28T02:30:52.323Z,1000.17
2018-07-28T02:31:52.311Z,1000.18
2018-07-28T02:32:52.301Z,1000.21
2018-07-28T02:33:52.317Z,1000.15
2018-07-28T02:34:52.342Z,1000.05
2018-07-28T02:35:52.264Z,999.97
2018-07-28T02:36:52.253Z,999.92
2018-07-28T02:37:52.243Z,999.94
2018-07-28T02:38:52.252Z,1000.08
2018-07-28T02:39:52.183Z,1000.20
2018-07-28T02:40:52.210Z,1000.19
2018-07-28T02:41:52.202Z,1000.17
2018-07-28T02:42:52.192Z,1000.01
2018-07-28T02:43:52.215Z,999.93
2018-07-28T02:44:52.179Z,1000.01
2018-07-28T02:45:52.109Z,999.97
2018-07-28T02:46:52.141Z,999.99
2018-07-28T02:47:52.137Z,999.96
2018-07-28T02:48:52.150Z,999.93
2018-07-28T02:49:52.069Z,999.92
2018-07-28T02:50:52.112Z,999.90
2018-07-28T02:51:52.105Z,999.92
2018-07-28T02:52:52.083Z,999.93
2018-07-28T02:53:52.099Z,999.92
2018-07-28T02:54:52.060Z,999.92
2018-07-28T02:55:52.054Z,999.95
2018-07-28T02:56:52.050Z,999.92
2018-07-28T02:57:51.986Z,999.91
2018-07-28T02:58:52.051Z,999.94
2018-07-28T02:59:52.017Z,999.94
2018-07-28T03:00:51.996Z,999.93
2018-07-28T03:01:51.993Z,999.90
2018-07-28T03:02:51.980Z,999.93
2018-07-28T03:03:51.987Z,999.99
2018-07-28T03:04:51.957Z,999.98
2018-07-28T03:05:51.941Z,999.97
2018-07-28T03:06:51.932Z,1000.04
2018-07-28T03:07:51.919Z,1000.04
2018-07-28T03:08:51.942Z,1000.06
2018-07-28T03:09:51.906Z,1000.12
2018-07-28T03:10:51.897Z,1000.15
2018-07-28T03:11:51.884Z,1000.22
2018-07-28T03:12:51.873Z,1000.26
2018-07-28T03:13:51.881Z,1000.36
2018-07-28T03:14:51.848Z,1000.40
2018-07-28T03:15:51.841Z,1000.55
2018-07-28T03:16:51.828Z,1000.52
2018-07-28T03:17:51.767Z,1000.48
2018-07-28T03:18:51.834Z,1000.39
2018-07-28T03:19:51.790Z,1000.37
2018-07-28T03:20:51.781Z,1000.42
2018-07-28T03:21:51.784Z,1000.47
2018-07-28T03:22:51.761Z,1000.48
2018-07-28T03:23:51.729Z,1000.49
2018-07-28T03:24:51.752Z,1000.54
2018-07-28T03:25:51.732Z,1000.53
2018-07-28T03:26:51.722Z,1000.48
2018-07-28T03:27:51.718Z,1000.39
2018-07-28T03:28:51.723Z,1000.24
2018-07-28T03:29:51.687Z,1000.20
2018-07-28T03:30:51.693Z,1000.29
2018-07-28T03:31:51.665Z,1000.41
2018-07-28T03:32:51.668Z,1000.53
2018-07-28T03:33:51.677Z,1000.57
2018-07-28T03:34:51.630Z,1000.54
2018-07-28T03:35:51.620Z,1000.37
2018-07-28T03:36:51.576Z,1000.20
2018-07-28T03:37:51.604Z,1000.20
2018-07-28T03:38:51.608Z,1000.34
2018-07-28T03:39:51.627Z,1000.43
2018-07-28T03:40:51.576Z,1000.51
2018-07-28T03:41:51.556Z,1000.52
2018-07-28T03:42:51.504Z,1000.48
2018-07-28T03:43:51.537Z,1000.38
2018-07-28T03:44:51.546Z,1000.29
2018-07-28T03:45:51.515Z,1000.30
2018-07-28T03:46:51.502Z,1000.39
2018-07-28T03:47:51.496Z,1000.41
2018-07-28T03:48:51.438Z,1000.41
2018-07-28T03:49:51.455Z,1000.43
2018-07-28T03:50:51.460Z,1000.41
2018-07-28T03:51:51.454Z,1000.36
2018-07-28T03:52:51.461Z,1000.32
2018-07-28T03:53:51.429Z,1000.32
2018-07-28T03:54:51.476Z,1000.34
2018-07-28T03:55:51.419Z,1000.39
2018-07-28T03:56:51.398Z,1000.41
2018-07-28T03:57:51.397Z,1000.47
2018-07-28T03:58:51.393Z,1000.38
2018-07-28T03:59:51.390Z,1000.38
2018-07-28T04:00:51.355Z,1000.34
2018-07-28T04:01:51.353Z,1000.36
2018-07-28T04:02:51.336Z,1000.36
2018-07-28T04:03:51.323Z,1000.40
2018-07-28T04:04:51.336Z,1000.41
2018-07-28T04:05:51.303Z,1000.44
2018-07-28T04:06:51.284Z,1000.44
2018-07-28T04:07:51.278Z,1000.40
2018-07-28T04:08:51.269Z,1000.44
2018-07-28T04:09:51.284Z,1000.45
2018-07-28T04:10:51.248Z,1000.46
2018-07-28T04:11:51.236Z,1000.47
2018-07-28T04:12:51.224Z,1000.46
2018-07-28T04:13:51.221Z,1000.49
2018-07-28T04:14:51.224Z,1000.45
2018-07-28T04:15:51.151Z,1000.47
2018-07-28T04:16:51.202Z,1000.44
2018-07-28T04:17:51.170Z,1000.42
2018-07-28T04:18:51.157Z,1000.41
2018-07-28T04:19:51.173Z,1000.36
2018-07-28T04:20:51.139Z,1000.27
2018-07-28T04:21:51.122Z,1000.23
2018-07-28T04:22:51.125Z,1000.25
2018-07-28T04:23:51.105Z,1000.32
2018-07-28T04:24:51.120Z,1000.31
2018-07-28T04:25:51.087Z,1000.26
2018-07-28T04:26:51.075Z,1000.23
2018-07-28T04:27:51.071Z,1000.23
2018-07-28T04:28:51.066Z,1000.20
2018-07-28T04:29:51.078Z,1000.21
2018-07-28T04:30:51.030Z,1000.22
2018-07-28T04:31:51.021Z,1000.21
2018-07-28T04:32:51.018Z,1000.22
2018-07-28T04:33:51.008Z,1000.17
2018-07-28T04:34:51.027Z,1000.17
2018-07-28T04:35:50.988Z,1000.23
2018-07-28T04:36:50.972Z,1000.14
2018-07-28T04:37:50.953Z,1000.03
2018-07-28T04:38:50.945Z,999.92
2018-07-28T04:39:50.962Z,999.92
2018-07-28T04:40:50.921Z,999.89
2018-07-28T04:41:50.917Z,999.88
2018-07-28T04:42:50.899Z,999.89
2018-07-28T04:43:50.917Z,999.91
2018-07-28T04:44:50.918Z,999.91
2018-07-28T04:45:50.830Z,999.89
2018-07-28T04:46:50.862Z,999.86
2018-07-28T04:47:50.864Z,999.84
2018-07-28T04:48:50.860Z,999.84
2018-07-28T04:49:50.865Z,999.82
2018-07-28T04:50:50.833Z,999.80
2018-07-28T04:51:50.836Z,999.79
2018-07-28T04:52:50.840Z,999.85
2018-07-28T04:53:50.779Z,999.80
2018-07-28T04:54:50.783Z,999.79
2018-07-28T04:55:50.772Z,999.76
2018-07-28T04:56:50.763Z,999.69
2018-07-28T04:57:50.750Z,999.66
2018-07-28T04:58:50.735Z,999.59
2018-07-28T04:59:50.757Z,999.56
2018-07-28T05:00:50.712Z,999.55
2018-07-28T05:01:50.705Z,999.48
2018-07-28T05:02:50.683Z,999.43
2018-07-28T05:03:50.677Z,999.45
2018-07-28T05:04:50.688Z,999.39
2018-07-28T05:05:50.658Z,999.41
2018-07-28T05:06:50.652Z,999.43
2018-07-28T05:07:50.633Z,999.50
2018-07-28T05:08:50.630Z,999.52
2018-07-28T05:09:50.639Z,999.59
2018-07-28T05:10:50.608Z,999.61
2018-07-28T05:11:50.607Z,999.64
2018-07-28T05:12:50.601Z,999.65
2018-07-28T05:13:50.566Z,999.71
2018-07-28T05:14:50.591Z,999.72
2018-07-28T05:15:50.558Z,999.77
2018-07-28T05:16:50.531Z,999.77
2018-07-28T05:17:50.543Z,999.81
2018-07-28T05:18:50.515Z,999.84
2018-07-28T05:19:50.525Z,999.95
2018-07-28T05:20:50.486Z,1000.01
2018-07-28T05:21:50.483Z,1000.01
2018-07-28T05:22:50.475Z,1000.01
2018-07-28T05:23:50.443Z,999.96
2018-07-28T05:24:50.478Z,999.91
2018-07-28T05:25:50.447Z,999.91
2018-07-28T05:26:50.428Z,999.86
2018-07-28T05:27:50.421Z,999.85
2018-07-28T05:28:50.408Z,999.83
2018-07-28T05:29:50.376Z,999.81
2018-07-28T05:30:50.383Z,999.79
2018-07-28T05:31:50.366Z,999.88
2018-07-28T05:32:50.360Z,999.92
2018-07-28T05:33:50.354Z,999.94
2018-07-28T05:34:50.389Z,999.90
2018-07-28T05:35:50.328Z,999.88
2018-07-28T05:36:50.312Z,999.80
2018-07-28T05:37:50.306Z,999.75
2018-07-28T05:38:50.303Z,999.74
2018-07-28T05:39:50.313Z,999.84
2018-07-28T05:40:50.232Z,999.90
2018-07-28T05:41:50.270Z,999.98
2018-07-28T05:42:50.279Z,999.97
2018-07-28T05:43:50.241Z,999.95
2018-07-28T05:44:50.358Z,999.89
2018-07-28T05:45:50.219Z,999.78
2018-07-28T05:46:50.218Z,999.72
2018-07-28T05:47:50.196Z,999.69
2018-07-28T05:48:50.187Z,999.74
2018-07-28T05:49:50.203Z,999.72
2018-07-28T05:50:50.196Z,999.76
2018-07-28T05:51:50.165Z,999.78
2018-07-28T05:52:50.144Z,999.86
2018-07-28T05:53:50.132Z,999.88
2018-07-28T05:54:50.190Z,999.94
2018-07-28T05:55:50.107Z,1000.02
2018-07-28T05:56:50.123Z,1000.08
2018-07-28T05:57:50.091Z,1000.08
2018-07-28T05:58:50.033Z,1000.08
2018-07-28T05:59:50.097Z,1000.08
2018-07-28T06:00:50.068Z,1000.03
2018-07-28T06:01:50.059Z,1000.02
2018-07-28T06:02:50.072Z,1000.03
2018-07-28T06:03:50.020Z,1000.04
2018-07-28T06:04:50.047Z,1000.12
2018-07-28T06:05:50.001Z,1000.25
2018-07-28T06:06:49.991Z,1000.36
2018-07-28T06:07:49.994Z,1000.48
2018-07-28T06:08:49.966Z,1000.53
2018-07-28T06:09:49.991Z,1000.60
2018-07-28T06:10:49.994Z,1000.58
2018-07-28T06:11:49.935Z,1000.62
2018-07-28T06:12:49.899Z,1000.67
2018-07-28T06:13:49.911Z,1000.59
2018-07-28T06:14:49.930Z,1000.60
2018-07-28T06:15:49.892Z,1000.55
2018-07-28T06:16:49.882Z,1000.59
2018-07-28T06:17:49.879Z,1000.57
2018-07-28T06:18:49.860Z,1000.58
2018-07-28T06:19:49.879Z,1000.58
2018-07-28T06:20:57.407Z,1000.63
2018-07-28T06:21:49.833Z,1000.64
2018-07-28T06:22:49.812Z,1000.68
2018-07-28T06:23:49.807Z,1000.72
2018-07-28T06:24:49.797Z,1000.73
2018-07-28T06:25:49.819Z,1000.68
2018-07-28T06:26:49.773Z,1000.68
2018-07-28T06:27:49.766Z,1000.71
2018-07-28T06:28:49.751Z,1000.76
2018-07-28T06:29:49.803Z,1000.81
2018-07-28T06:30:49.728Z,1000.84
2018-07-28T06:31:49.820Z,1000.81
2018-07-28T06:32:49.722Z,1000.83
2018-07-28T06:33:49.709Z,1000.81
2018-07-28T06:34:49.703Z,1000.80
2018-07-28T06:35:49.716Z,1000.79
2018-07-28T06:36:49.668Z,1000.78
2018-07-28T06:37:49.619Z,1000.85
2018-07-28T06:38:49.641Z,1000.85
2018-07-28T06:39:49.628Z,1000.79
2018-07-28T06:40:49.666Z,1000.79
2018-07-28T06:41:49.570Z,1000.74
2018-07-28T06:42:49.608Z,1000.79
2018-07-28T06:43:49.612Z,1000.79
2018-07-28T06:44:49.582Z,1000.73
2018-07-28T06:45:49.599Z,1000.71
2018-07-28T06:46:49.568Z,1000.67
2018-07-28T06:47:49.600Z,1000.71
2018-07-28T06:48:49.539Z,1000.67
2018-07-28T06:49:49.533Z,1000.71
2018-07-28T06:50:49.545Z,1000.79
2018-07-28T06:51:49.500Z,1000.94
2018-07-28T06:52:49.497Z,1000.95
2018-07-28T06:53:49.587Z,1000.86
2018-07-28T06:54:49.470Z,1000.83
2018-07-28T06:55:49.542Z,1000.83
2018-07-28T06:56:49.452Z,1000.82
2018-07-28T06:57:49.436Z,1000.82
2018-07-28T06:58:49.432Z,1000.88
2018-07-28T06:59:49.432Z,1000.88
2018-07-28T07:00:49.436Z,1000.87
2018-07-28T07:01:49.397Z,1000.86
2018-07-28T07:02:49.390Z,1000.84
2018-07-28T07:03:49.408Z,1000.84
2018-07-28T07:04:50.383Z,1000.93
2018-07-28T07:05:49.384Z,1000.94
2018-07-28T07:06:49.349Z,1000.98
2018-07-28T07:07:49.333Z,1000.98
2018-07-28T07:08:49.346Z,1000.94
2018-07-28T07:09:49.313Z,1000.99
2018-07-28T07:10:49.346Z,1001.03
2018-07-28T07:11:49.294Z,1001.05
2018-07-28T07:12:49.295Z,1001.10
2018-07-28T07:13:49.310Z,1001.17
2018-07-28T07:14:49.268Z,1001.15
2018-07-28T07:15:49.225Z,1001.17
2018-07-28T07:16:49.240Z,1001.20
2018-07-28T07:17:49.230Z,1001.27
2018-07-28T07:18:49.211Z,1001.32
2018-07-28T07:19:49.211Z,1001.39
2018-07-28T07:20:49.224Z,1001.40
2018-07-28T07:21:49.186Z,1001.47
2018-07-28T07:22:49.802Z,1001.50
2018-07-28T07:23:49.173Z,1001.53
2018-07-28T07:24:49.207Z,1001.56
2018-07-28T07:25:49.176Z,1001.46
2018-07-28T07:26:49.087Z,1001.47
2018-07-28T07:27:49.118Z,1001.44
2018-07-28T07:28:49.121Z,1001.43
2018-07-28T07:29:49.102Z,1001.47
2018-07-28T07:30:49.314Z,1001.47
2018-07-28T07:31:49.103Z,1001.46
2018-07-28T07:32:49.074Z,1001.42
2018-07-28T07:33:49.063Z,1001.39
2018-07-28T07:34:49.066Z,1001.38
2018-07-28T07:35:49.068Z,1001.34
2018-07-28T07:36:49.065Z,1001.33
2018-07-28T07:37:49.019Z,1001.34
2018-07-28T07:38:49.018Z,1001.26
2018-07-28T07:39:49.010Z,1001.19
2018-07-28T07:40:49.180Z,1001.21
2018-07-28T07:41:49.081Z,1001.23
2018-07-28T07:42:48.978Z,1001.22
2018-07-28T07:43:48.955Z,1001.17
2018-07-28T07:44:48.956Z,1001.18
2018-07-28T07:45:48.965Z,1001.19
2018-07-28T07:46:48.945Z,1001.23
2018-07-28T07:47:48.911Z,1001.15
2018-07-28T07:48:48.904Z,1001.15
2018-07-28T07:49:48.895Z,1001.17
2018-07-28T07:50:48.914Z,1001.15
2018-07-28T07:51:48.877Z,1001.13
2018-07-28T07:52:48.868Z,1001.15
2018-07-28T07:53:48.914Z,1001.14
2018-07-28T07:54:48.839Z,1001.12
2018-07-28T07:55:48.854Z,1001.12
2018-07-28T07:56:48.845Z,1001.12
2018-07-28T07:57:48.811Z,1001.11
2018-07-28T07:58:48.805Z,1001.08
2018-07-28T07:59:48.796Z,1001.12
2018-07-28T08:00:48.806Z,1001.16
2018-07-28T08:01:48.765Z,1001.17
2018-07-28T08:02:48.757Z,1001.19
2018-07-28T08:03:48.743Z,1001.20
2018-07-28T08:04:48.746Z,1001.20
2018-07-28T08:05:48.752Z,1001.20
2018-07-28T08:06:48.733Z,1001.26
2018-07-28T08:07:48.660Z,1001.17
2018-07-28T08:08:48.694Z,1001.25
2018-07-28T08:09:48.694Z,1001.32
2018-07-28T08:10:48.694Z,1001.33
2018-07-28T08:11:48.663Z,1001.34
2018-07-28T08:12:48.676Z,1001.39
2018-07-28T08:13:48.632Z,1001.41
2018-07-28T08:14:48.674Z,1001.44
2018-07-28T08:15:48.650Z,1001.53
2018-07-28T08:16:48.602Z,1001.48
2018-07-28T08:17:48.603Z,1001.47
2018-07-28T08:18:48.596Z,1001.44
2018-07-28T08:19:48.574Z,1001.48
2018-07-28T08:20:48.599Z,1001.46
2018-07-28T08:21:48.554Z,1001.43
2018-07-28T08:22:48.500Z,1001.43
2018-07-28T08:23:48.529Z,1001.43
2018-07-28T08:24:48.522Z,1001.39
2018-07-28T08:25:48.548Z,1001.43
2018-07-28T08:26:48.548Z,1001.47
2018-07-28T08:27:48.494Z,1001.48
2018-07-28T08:28:48.487Z,1001.39
2018-07-28T08:29:48.425Z,1001.39
2018-07-28T08:30:48.487Z,1001.33
2018-07-28T08:31:48.481Z,1001.35
2018-07-28T08:32:48.442Z,1001.31
2018-07-28T08:33:48.513Z,1001.33
2018-07-28T08:34:48.421Z,1001.32
2018-07-28T08:35:48.394Z,1001.26
2018-07-28T08:36:48.390Z,1001.28
2018-07-28T08:37:48.469Z,1001.27
2018-07-28T08:38:48.375Z,1001.28
2018-07-28T08:39:48.380Z,1001.31
2018-07-28T08:40:48.387Z,1001.37
2018-07-28T08:41:48.339Z,1001.40
2018-07-28T08:42:48.355Z,1001.40
2018-07-28T08:43:48.336Z,1001.45
2018-07-28T08:44:48.329Z,1001.50
2018-07-28T08:45:48.365Z,1001.55
2018-07-28T08:46:48.292Z,1001.59
2018-07-28T08:47:48.284Z,1001.59
2018-07-28T08:48:48.308Z,1001.61
2018-07-28T08:49:48.264Z,1001.65
2018-07-28T08:50:48.276Z,1001.71
2018-07-28T08:51:48.235Z,1001.73
2018-07-28T08:52:48.222Z,1001.76
2018-07-28T08:53:48.219Z,1001.82
2018-07-28T08:54:48.294Z,1001.86
2018-07-28T08:55:48.219Z,1001.83
2018-07-28T08:56:48.206Z,1001.84
2018-07-28T08:57:48.180Z,1001.84
2018-07-28T08:58:48.161Z,1001.84
2018-07-28T08:59:48.111Z,1001.84
2018-07-28T09:00:48.177Z,1001.89
2018-07-28T09:01:48.129Z,1001.91
2018-07-28T09:02:48.139Z,1001.78
2018-07-28T09:03:48.113Z,1001.77
2018-07-28T09:04:48.097Z,1001.75
2018-07-28T09:05:48.140Z,1001.79
2018-07-28T09:06:48.074Z,1001.72
2018-07-28T09:07:48.061Z,1001.75
2018-07-28T09:08:48.091Z,1001.73
2018-07-28T09:09:48.068Z,1001.74
2018-07-28T09:10:48.039Z,1001.72
2018-07-28T09:11:48.078Z,1001.71
2018-07-28T09:12:48.011Z,1001.67
2018-07-28T09:13:48.010Z,1001.69
2018-07-28T09:14:47.994Z,1001.67
2018-07-28T09:15:48.010Z,1001.66
2018-07-28T09:16:48.000Z,1001.64
2018-07-28T09:17:48.014Z,1001.65
2018-07-28T09:18:47.952Z,1001.65
2018-07-28T09:19:47.946Z,1001.66
2018-07-28T09:20:47.962Z,1001.67
2018-07-28T09:21:47.950Z,1001.65
2018-07-28T09:22:48.033Z,1001.62
2018-07-28T09:23:47.930Z,1001.59
2018-07-28T09:24:47.899Z,1001.56
2018-07-28T09:25:47.883Z,1001.54
2018-07-28T09:26:47.991Z,1001.61
2018-07-28T09:27:47.885Z,1001.61
2018-07-28T09:28:47.849Z,1001.60
2018-07-28T09:29:47.832Z,1001.59
2018-07-28T09:30:47.823Z,1001.57
2018-07-28T09:31:47.849Z,1001.56
2018-07-28T09:32:47.849Z,1001.54
2018-07-28T09:33:47.806Z,1001.55
2018-07-28T09:34:47.749Z,1001.49
2018-07-28T09:35:47.775Z,1001.50
2018-07-28T09:36:47.861Z,1001.48
2018-07-28T09:37:47.794Z,1001.49
2018-07-28T09:38:47.753Z,1001.55
2018-07-28T09:39:47.739Z,1001.56
2018-07-28T09:40:47.731Z,1001.58
2018-07-28T09:41:47.740Z,1001.65
2018-07-28T09:42:47.657Z,1001.70
2018-07-28T09:43:47.698Z,1001.70
2018-07-28T09:44:47.685Z,1001.74
2018-07-28T09:45:47.692Z,1001.65
2018-07-28T09:46:47.686Z,1001.67
2018-07-28T09:47:47.654Z,1001.65
2018-07-28T09:48:47.644Z,1001.64
2018-07-28T09:49:47.663Z,1001.62
2018-07-28T09:50:47.621Z,1001.62
2018-07-28T09:51:47.641Z,1001.65
2018-07-28T09:52:47.597Z,1001.64
2018-07-28T09:53:48.311Z,1001.65
2018-07-28T09:54:47.579Z,1001.65
2018-07-28T09:55:47.583Z,1001.64
2018-07-28T09:56:47.538Z,1001.62
2018-07-28T09:57:47.551Z,1001.64
2018-07-28T09:58:47.538Z,1001.62
2018-07-28T09:59:47.544Z,1001.59
2018-07-28T10:00:47.522Z,1001.56
2018-07-28T10:01:47.544Z,1001.57
2018-07-28T10:02:47.497Z,1001.49
2018-07-28T10:03:47.538Z,1001.49
2018-07-28T10:04:47.480Z,1001.51
2018-07-28T10:05:47.471Z,1001.50
2018-07-28T10:06:47.519Z,1001.52
2018-07-28T10:07:47.474Z,1001.49
2018-07-28T10:08:47.442Z,1001.52
2018-07-28T10:09:47.427Z,1001.53
2018-07-28T10:10:47.413Z,1001.51
2018-07-28T10:11:47.435Z,1001.52
2018-07-28T10:12:47.397Z,1001.53
2018-07-28T10:13:47.394Z,1001.53
2018-07-28T10:14:47.375Z,1001.55
2018-07-28T10:15:47.435Z,1001.55
2018-07-28T10:16:47.406Z,1001.59
2018-07-28T10:17:47.345Z,1001.59
2018-07-28T10:18:47.333Z,1001.52
2018-07-28T10:19:47.448Z,1001.48
2018-07-28T10:20:47.326Z,1001.55
2018-07-28T10:21:47.346Z,1001.55
2018-07-28T10:22:47.247Z,1001.56
2018-07-28T10:23:47.282Z,1001.55
2018-07-28T10:24:47.359Z,1001.58
2018-07-28T10:25:47.324Z,1001.52
2018-07-28T10:26:47.330Z,1001.51
2018-07-28T10:27:47.246Z,1001.53
2018-07-28T10:28:47.233Z,1001.50
2018-07-28T10:29:47.184Z,1001.47
2018-07-28T10:30:47.166Z,1001.46
2018-07-28T10:31:47.283Z,1001.41
2018-07-28T10:32:47.191Z,1001.39
2018-07-28T10:33:47.185Z,1001.37
2018-07-28T10:34:47.195Z,1001.38
2018-07-28T10:35:47.182Z,1001.34
2018-07-28T10:36:47.268Z,1001.32
2018-07-28T10:37:47.160Z,1001.29
2018-07-28T10:38:47.131Z,1001.30
2018-07-28T10:39:47.118Z,1001.31
2018-07-28T10:40:47.115Z,1001.29
2018-07-28T10:41:47.137Z,1001.27
2018-07-28T10:42:47.092Z,1001.27
2018-07-28T10:43:47.033Z,1001.20
2018-07-28T10:44:47.068Z,1001.21
2018-07-28T10:45:47.072Z,1001.21
2018-07-28T10:46:47.072Z,1001.22
2018-07-28T10:47:47.039Z,1001.16
2018-07-28T10:48:47.027Z,1001.17
2018-07-28T10:49:47.014Z,1001.21
2018-07-28T10:50:47.004Z,1001.21
2018-07-28T10:51:47.054Z,1001.17
2018-07-28T10:52:47.002Z,1001.19
2018-07-28T10:53:46.972Z,1001.19
2018-07-28T10:54:46.966Z,1001.23
2018-07-28T10:55:46.906Z,1001.22
2018-07-28T10:56:46.950Z,1001.23
2018-07-28T10:57:46.959Z,1001.20
2018-07-28T10:58:46.924Z,1001.23
2018-07-28T10:59:46.907Z,1001.21
2018-07-28T11:00:46.895Z,1001.27
2018-07-28T11:01:46.896Z,1001.30
2018-07-28T11:02:46.860Z,1001.22
2018-07-28T11:03:46.877Z,1001.23
2018-07-28T11:04:46.854Z,1001.23
2018-07-28T11:05:46.851Z,1001.13
2018-07-28T11:06:46.839Z,1001.09
2018-07-28T11:07:46.854Z,1001.11
2018-07-28T11:08:46.816Z,1001.10
2018-07-28T11:09:46.813Z,1001.11
2018-07-28T11:10:46.806Z,1001.09
2018-07-28T11:11:46.784Z,1001.11
2018-07-28T11:12:46.764Z,1001.14
2018-07-28T11:13:46.780Z,1001.08
2018-07-28T11:14:46.768Z,1001.17
2018-07-28T11:15:46.745Z,1001.11
2018-07-28T11:16:46.737Z,1001.13
2018-07-28T11:17:46.715Z,1001.16
2018-07-28T11:18:46.813Z,1001.17
2018-07-28T11:19:46.710Z,1001.08
2018-07-28T11:20:46.649Z,1001.15
2018-07-28T11:21:46.695Z,1001.14
2018-07-28T11:22:46.788Z,1001.11
2018-07-28T11:23:46.662Z,1001.17
2018-07-28T11:24:46.739Z,1001.17
2018-07-28T11:25:46.643Z,1001.27
2018-07-28T11:26:46.627Z,1001.31
2018-07-28T11:27:46.653Z,1001.35
2018-07-28T11:28:46.635Z,1001.33
2018-07-28T11:29:46.596Z,1001.27
2018-07-28T11:30:46.589Z,1001.25
2018-07-28T11:31:46.662Z,1001.23
2018-07-28T11:32:46.599Z,1001.27
2018-07-28T11:33:46.557Z,1001.33
2018-07-28T11:34:46.541Z,1001.42
2018-07-28T11:35:46.545Z,1001.52
2018-07-28T11:36:46.532Z,1001.58
2018-07-28T11:37:46.595Z,1001.58
2018-07-28T11:38:46.513Z,1001.53
2018-07-28T11:39:46.494Z,1001.52
2018-07-28T11:40:46.480Z,1001.56
2018-07-28T11:41:46.475Z,1001.55
2018-07-28T11:42:46.487Z,1001.50
2018-07-28T11:43:46.450Z,1001.50
2018-07-28T11:44:46.443Z,1001.51
2018-07-28T11:45:46.475Z,1001.50
2018-07-28T11:46:46.389Z,1001.47
2018-07-28T11:47:46.441Z,1001.44
2018-07-28T11:48:46.401Z,1001.48
2018-07-28T11:49:46.402Z,1001.45
2018-07-28T11:50:46.382Z,1001.40
2018-07-28T11:51:46.366Z,1001.39
2018-07-28T11:52:46.392Z,1001.38
2018-07-28T11:53:46.347Z,1001.39
2018-07-28T11:54:46.334Z,1001.42
2018-07-28T11:55:46.337Z,1001.32
2018-07-28T11:56:46.315Z,1001.37
2018-07-28T11:57:46.359Z,1001.44
2018-07-28T11:58:46.289Z,1001.44
2018-07-28T11:59:46.283Z,1001.51
2018-07-28T12:00:46.280Z,1001.52
2018-07-28T12:01:46.300Z,1001.50
2018-07-28T12:02:46.283Z,1001.51
2018-07-28T12:03:46.239Z,1001.53
2018-07-28T12:04:46.229Z,1001.53
2018-07-28T12:05:46.189Z,1001.48
2018-07-28T12:06:46.214Z,1001.49
2018-07-28T12:07:46.226Z,1001.46
2018-07-28T12:08:46.194Z,1001.49
2018-07-28T12:09:46.200Z,1001.47
2018-07-28T12:10:46.169Z,1001.48